Dunlevy, PA (15432)

1:25 PM EDT on August 27, 2014 (GMT -0400)
Belle Vernon | Change Station
CLOSE
Current Station
Personal Weather Station
Location: Belle Vernon, PA
Elevation: 996 ft
Nearby Weather Stations

Elev 996 ft 40.12 °N, 79.85 °W | Updated 1 second ago

Partly Cloudy
Partly Cloudy
87.9 °F
Feels Like 98 °F
N
0.0
Wind Variable Wind from NW
Gusts 0.0 mph

Today
High -- | Low -- °F
--% Chance of Precip.
Yesterday
High -- | Low -- °F
Precip. -- in
6:42 AM 7:58 PM
Waxing Crescent, 4% visible
Pressure 30.05 in
Visibility 8.0 miles
Clouds Clear
Heat Index 98 °F
Dew Point 76 °F
Humidity 67%
Rainfall 0.00 in
Snow Depth Not available.
UV 9 out of 12
Pollen 10.40 out of 12
Ozone Good
PM2.5 Moderate
Flu Activity Not available.
METAR KAGC 271653Z 18007KT 150V210 8SM CLR 28/21 A3007 RMK AO2 SLP176 T02780206

More Conditions Fewer Conditions

Pressure 30.05 in
Visibility 8.0 miles
Clouds Clear
Heat Index 98 °F
Dew Point 76 °F
Humidity 67%
Rainfall 0.00 in
Snow Depth Not available.
UV 9 out of 12
Pollen 10.40 out of 12
Ozone Good
PM2.5 Moderate
Flu Activity Not available.
METAR KAGC 271653Z 18007KT 150V210 8SM CLR 28/21 A3007 RMK AO2 SLP176 T02780206

More Conditions Fewer Conditions

10-Day Weather Forecast

Almanac

Astronomy

Aug. 27, 2014 Rise Set
Actual Time 6:42 AM EDT 7:58 PM EDT
Civil Twilight 6:14 AM EDT 8:26 PM EDT
Nautical Twilight 5:40 AM EDT 9:00 PM EDT
Astronomical Twilight 5:05 AM EDT 9:35 PM EDT
Moon 8:37 AM EDT 8:50 PM EDT
Length of Visible Light 14h 12m
Length of Day
13h 16m
Tomorrow will be 2m 29s shorter.
Waxing Crescent, 4% of the Moon is Illuminated
Today
Waxing Crescent
Sep 2
First Quarter
Sep 8
Full
Sep 15
Last Quarter
Sep 24
New

Today's Extremes

State Highs State Lows

Community

WunderPhotos

Upload Photos

1,747,731 photos uploaded!

Nearby

Air Quality

  Air Quality AQ Index Pollutant
Yesterday Moderate
OZONE
Yesterday Moderate
PM2.5
Current Moderate
PM2.5
Current Good
OZONE
Wednesday Moderate
OZONE
Wednesday Moderate
PM2.5
Thursday Good
PM2.5
Thursday Good
OZONE

Snow Depth

Station Depth Elevation
No new snow has been reported.

Earthquake Activity

City Distance Mag. Time & Date
No recent earthquake activity has been reported nearby.
Minimum magnitude displayed is 2.5.

Coastal Water Temperatures

Place Temperature
No Stations Reporting

Nearby Weather Stations